createdAt,value
2018-03-27T00:01:06.425Z,101508.07
2018-03-27T00:03:35.962Z,101507.58
2018-03-27T00:06:05.085Z,101493.63
2018-03-27T00:08:34.189Z,101496.77
2018-03-27T00:11:03.601Z,101493.14
2018-03-27T00:13:32.706Z,101490.06
2018-03-27T00:16:02.402Z,101486.02
2018-03-27T00:18:31.849Z,101484.11
2018-03-27T00:21:00.959Z,101482.76
2018-03-27T00:23:30.065Z,101478.70
2018-03-27T00:25:59.549Z,101474.66
2018-03-27T00:28:40.097Z,101469.36
2018-03-27T00:31:20.549Z,101467.03
2018-03-27T00:34:00.999Z,101469.80
2018-03-27T00:36:41.503Z,101466.60
2018-03-27T00:39:21.845Z,101463.53
2018-03-27T00:55:29.887Z,101450.73
2018-03-27T00:57:59.028Z,101451.16
2018-03-27T01:00:28.164Z,101449.81
2018-03-27T01:02:57.277Z,101456.59
2018-03-27T01:05:26.377Z,101450.67
2018-03-27T01:07:55.544Z,101445.75
2018-03-27T01:10:24.673Z,101444.42
2018-03-27T01:12:53.773Z,101439.42
2018-03-27T01:15:22.876Z,101442.98
2018-03-27T01:17:52.308Z,101437.20
2018-03-27T01:20:21.409Z,101430.91
2018-03-27T01:22:50.519Z,101428.20
2018-03-27T01:25:19.646Z,101425.05
2018-03-27T01:27:48.768Z,101417.86
2018-03-27T01:30:17.870Z,101425.48
2018-03-27T01:32:46.990Z,101424.13
2018-03-27T01:35:16.089Z,101421.42
2018-03-27T01:37:45.210Z,101412.87
2018-03-27T01:40:14.701Z,101411.47
2018-03-27T01:42:43.807Z,101406.58
2018-03-27T01:45:12.902Z,101403.79
2018-03-27T01:47:42.023Z,101398.88
2018-03-27T01:50:11.114Z,101400.31
2018-03-27T01:52:40.230Z,101403.88
2018-03-27T01:55:09.478Z,101403.79
2018-03-27T01:57:38.576Z,101398.88
2018-03-27T02:00:07.677Z,101396.66
2018-03-27T02:02:36.966Z,101402.16
2018-03-27T02:05:05.967Z,101393.19
2018-03-27T02:07:35.076Z,101389.64
2018-03-27T02:10:04.198Z,101390.56
2018-03-27T02:12:38.672Z,101388.36
2018-03-27T02:15:13.486Z,101386.08
2018-03-27T02:17:48.033Z,101374.00
2018-03-27T02:20:22.741Z,101377.62
2018-03-27T02:23:03.634Z,101374.92
2018-03-27T02:25:33.123Z,101365.09
2018-03-27T02:28:02.060Z,101364.69
2018-03-27T02:30:31.378Z,101366.05
2018-03-27T02:33:00.993Z,101359.28
2018-03-27T02:35:30.088Z,101359.37
2018-03-27T02:37:59.205Z,101351.27
2018-03-27T02:40:28.344Z,101347.21
2018-03-27T02:42:57.333Z,101345.80
2018-03-27T02:45:26.453Z,101342.73
2018-03-27T02:47:55.893Z,101346.29
2018-03-27T02:50:25.004Z,101341.31
2018-03-27T02:52:54.105Z,101337.20
2018-03-27T02:55:23.221Z,101334.98
2018-03-27T02:57:52.109Z,101338.67
2018-03-27T03:00:21.208Z,101340.88
2018-03-27T03:02:50.785Z,101333.70
2018-03-27T03:18:23.535Z,101315.77
2018-03-27T03:20:52.810Z,101309.81
2018-03-27T03:23:21.913Z,101307.66
2018-03-27T03:25:51.033Z,101301.48
2018-03-27T03:28:20.177Z,101299.86
2018-03-27T03:30:49.545Z,101302.55
2018-03-27T03:33:19.029Z,101287.50
2018-03-27T03:35:48.153Z,101292.97
2018-03-27T03:38:17.260Z,101289.06
2018-03-27T03:40:46.722Z,101283.38
2018-03-27T03:43:15.817Z,101280.30
2018-03-27T03:45:44.933Z,101279.95
2018-03-27T03:48:14.402Z,101279.67
2018-03-27T03:50:43.507Z,101277.34
2018-03-27T03:53:12.625Z,101270.73
2018-03-27T03:55:42.108Z,101273.87
2018-03-27T03:58:11.247Z,101267.81
2018-03-27T04:00:40.357Z,101271.03
2018-03-27T04:03:09.811Z,101267.59
2018-03-27T04:05:38.932Z,101269.31
2018-03-27T04:08:08.030Z,101264.89
2018-03-27T04:10:37.314Z,101256.30
2018-03-27T04:13:06.408Z,101259.00
2018-03-27T04:15:35.605Z,101267.62
2018-03-27T04:18:04.721Z,101263.63
2018-03-27T04:20:33.821Z,101259.20
2018-03-27T04:23:02.922Z,101254.25
2018-03-27T04:25:32.288Z,101262.85
2018-03-27T04:28:01.390Z,101260.58
2018-03-27T04:30:30.502Z,101258.86
2018-03-27T04:32:59.969Z,101251.67
2018-03-27T04:35:29.067Z,101249.98
2018-03-27T04:37:58.181Z,101251.39
2018-03-27T04:40:27.699Z,101245.50
2018-03-27T04:42:56.866Z,101242.43
2018-03-27T04:45:25.900Z,101238.84
2018-03-27T04:47:55.382Z,101236.97
2018-03-27T04:50:25.042Z,101233.28
2018-03-27T04:52:54.159Z,101231.62
2018-03-27T04:55:23.707Z,101234.27
2018-03-27T04:57:52.811Z,101222.69
2018-03-27T05:00:21.931Z,101221.12
2018-03-27T05:02:51.690Z,101218.36
2018-03-27T05:05:20.569Z,101216.00
2018-03-27T05:07:49.687Z,101214.73
2018-03-27T05:10:19.092Z,101216.09
2018-03-27T05:12:48.200Z,101209.42
2018-03-27T05:15:17.304Z,101206.35
2018-03-27T05:17:46.772Z,101203.50
2018-03-27T05:20:15.889Z,101199.97
2018-03-27T05:22:45.067Z,101195.92
2018-03-27T05:25:14.217Z,101193.34
2018-03-27T05:27:43.330Z,101190.52
2018-03-27T05:32:40.831Z,101189.29
2018-03-27T05:35:09.973Z,101183.03
2018-03-27T05:37:39.081Z,101182.91
2018-03-27T05:40:08.505Z,101176.28
2018-03-27T05:42:37.607Z,101179.49
2018-03-27T05:45:06.711Z,101175.78
2018-03-27T05:47:36.222Z,101179.06
2018-03-27T05:50:05.386Z,101178.30
2018-03-27T05:52:34.511Z,101178.35
2018-03-27T05:55:03.736Z,101173.30
2018-03-27T05:57:32.859Z,101169.18
2018-03-27T06:00:01.763Z,101165.71
2018-03-27T06:02:31.209Z,101156.32
2018-03-27T06:05:00.329Z,101159.88
2018-03-27T06:07:29.433Z,101152.30
2018-03-27T06:09:58.798Z,101149.14
2018-03-27T06:12:28.006Z,101147.23
2018-03-27T06:14:57.112Z,101133.89
2018-03-27T06:17:26.574Z,101141.89
2018-03-27T06:19:55.484Z,101136.59
2018-03-27T06:22:24.597Z,101133.52
2018-03-27T06:24:53.747Z,101137.14
2018-03-27T06:27:22.924Z,101123.23
2018-03-27T06:29:52.218Z,101125.02
2018-03-27T06:32:21.663Z,101116.91
2018-03-27T06:34:50.881Z,101113.36
2018-03-27T06:37:19.977Z,101110.80
2018-03-27T06:39:49.098Z,101111.73
2018-03-27T06:42:18.278Z,101107.73
2018-03-27T06:44:47.566Z,101105.47
2018-03-27T06:47:17.077Z,101095.59
2018-03-27T06:49:46.194Z,101087.98
2018-03-27T06:52:16.090Z,101087.98
2018-03-27T06:54:45.261Z,101087.58
2018-03-27T06:57:14.368Z,101081.72
2018-03-27T06:59:43.484Z,101081.66
2018-03-27T07:02:12.987Z,101076.84
2018-03-27T07:04:42.093Z,101074.63
2018-03-27T07:07:11.214Z,101066.47
2018-03-27T07:09:40.766Z,101070.09
2018-03-27T07:12:09.908Z,101065.98
2018-03-27T07:14:39.035Z,101065.98
2018-03-27T07:17:08.400Z,101065.06
2018-03-27T07:19:37.866Z,101062.75
2018-03-27T07:22:07.007Z,101057.23
2018-03-27T07:24:36.455Z,101051.53
2018-03-27T07:27:05.556Z,101047.60
2018-03-27T07:29:34.917Z,101047.02
2018-03-27T07:32:04.343Z,101046.28
2018-03-27T07:34:33.578Z,101046.50
2018-03-27T07:37:02.698Z,101043.15
2018-03-27T07:39:32.186Z,101048.46
2018-03-27T07:42:01.295Z,101038.45
2018-03-27T07:44:30.417Z,101037.71
2018-03-27T07:46:59.952Z,101042.03
2018-03-27T07:49:29.116Z,101035.98
2018-03-27T07:51:58.387Z,101038.09
2018-03-27T07:54:27.518Z,101034.32
2018-03-27T07:56:56.636Z,101024.70
2018-03-27T07:59:25.754Z,101026.42
2018-03-27T08:01:54.882Z,101023.97
2018-03-27T08:04:24.014Z,101016.72
2018-03-27T08:06:53.181Z,101009.87
2018-03-27T08:09:22.442Z,101012.94
2018-03-27T08:11:51.361Z,101006.09
2018-03-27T08:14:20.461Z,101008.17
2018-03-27T08:16:49.613Z,101001.16
2018-03-27T08:19:18.722Z,100989.86
2018-03-27T08:21:47.895Z,100989.76
2018-03-27T08:24:17.078Z,100987.75
2018-03-27T08:26:46.405Z,100991.71
2018-03-27T08:29:15.504Z,100991.25
2018-03-27T08:31:44.968Z,100990.59
2018-03-27T08:34:14.109Z,100987.03
2018-03-27T08:36:43.246Z,100986.48
2018-03-27T08:39:12.411Z,100978.64
2018-03-27T08:41:41.377Z,100979.46
2018-03-27T08:44:11.249Z,100967.99
2018-03-27T08:46:40.436Z,100968.92
2018-03-27T08:49:09.641Z,100964.73
2018-03-27T08:51:38.763Z,100959.30
2018-03-27T08:54:08.264Z,100949.70
2018-03-27T08:56:37.389Z,100953.72
2018-03-27T08:59:06.531Z,100959.59
2018-03-27T09:01:36.057Z,100954.16
2018-03-27T09:04:05.974Z,100947.76
2018-03-27T09:06:35.124Z,100947.69
2018-03-27T09:09:04.026Z,100945.48
2018-03-27T09:11:33.132Z,100939.58
2018-03-27T09:14:02.090Z,100936.25
2018-03-27T09:16:31.034Z,100934.77
2018-03-27T09:19:00.155Z,100930.35
2018-03-27T09:21:29.451Z,100925.64
2018-03-27T09:23:58.587Z,100923.00
2018-03-27T09:26:27.689Z,100917.63
2018-03-27T09:28:56.693Z,100922.64
2018-03-27T09:31:25.804Z,100917.30
2018-03-27T09:33:54.936Z,100911.36
2018-03-27T09:36:24.437Z,100914.92
2018-03-27T09:38:53.553Z,100913.40
2018-03-27T09:41:22.733Z,100915.34
2018-03-27T09:43:51.849Z,100915.67
2018-03-27T09:46:20.955Z,100911.98
2018-03-27T09:48:50.073Z,100906.58
2018-03-27T09:51:19.188Z,100909.84
2018-03-27T09:53:48.293Z,100907.14
2018-03-27T09:56:17.402Z,100906.64
2018-03-27T09:58:46.614Z,100909.28
2018-03-27T10:01:21.135Z,100903.44
2018-03-27T10:03:50.335Z,100900.73
2018-03-27T10:06:19.673Z,100886.89
2018-03-27T10:08:48.781Z,100901.06
2018-03-27T10:11:18.115Z,100889.83
2018-03-27T10:13:47.237Z,100880.89
2018-03-27T10:16:16.351Z,100882.56
2018-03-27T10:18:45.605Z,100880.66
2018-03-27T10:21:14.714Z,100879.30
2018-03-27T10:23:43.824Z,100875.58
2018-03-27T10:26:12.953Z,100866.97
2018-03-27T10:28:42.059Z,100860.34
2018-03-27T10:31:11.191Z,100858.42
2018-03-27T10:33:40.316Z,100853.09
2018-03-27T10:36:09.416Z,100849.81
2018-03-27T10:38:38.553Z,100850.97
2018-03-27T10:41:07.674Z,100844.56
2018-03-27T10:43:36.789Z,100840.84
2018-03-27T10:46:05.884Z,100843.47
2018-03-27T10:48:35.008Z,100836.18
2018-03-27T10:51:04.131Z,100836.73
2018-03-27T10:53:33.292Z,100833.09
2018-03-27T10:56:02.418Z,100825.20
2018-03-27T10:58:31.538Z,100815.77
2018-03-27T11:01:00.637Z,100817.30
2018-03-27T11:03:29.787Z,100814.80
2018-03-27T11:05:58.892Z,100808.04
2018-03-27T11:08:27.998Z,100805.12
2018-03-27T11:10:57.437Z,100798.70
2018-03-27T11:13:26.556Z,100803.50
2018-03-27T11:15:55.661Z,100804.78
2018-03-27T11:18:25.119Z,100800.20
2018-03-27T11:20:54.227Z,100798.77
2018-03-27T11:23:23.377Z,100789.37
2018-03-27T11:25:52.677Z,100787.94
2018-03-27T11:28:21.800Z,100784.07
2018-03-27T11:30:50.897Z,100772.21
2018-03-27T11:33:20.090Z,100761.22
2018-03-27T11:35:49.194Z,100755.92
2018-03-27T11:38:18.316Z,100749.22
2018-03-27T11:40:47.438Z,100747.48
2018-03-27T11:43:16.567Z,100747.80
2018-03-27T11:45:45.675Z,100738.27
2018-03-27T11:48:15.177Z,100737.91
2018-03-27T11:50:44.284Z,100737.84
2018-03-27T11:53:13.381Z,100732.50
2018-03-27T11:55:42.516Z,100727.02
2018-03-27T11:58:11.629Z,100720.69
2018-03-27T12:00:40.812Z,100722.11
2018-03-27T12:03:10.261Z,100718.16
2018-03-27T12:05:39.403Z,100716.95
2018-03-27T12:08:08.537Z,100712.14
2018-03-27T12:10:37.655Z,100708.84
2018-03-27T12:13:06.773Z,100713.42
2018-03-27T12:15:35.883Z,100706.49
2018-03-27T12:18:05.074Z,100709.16
2018-03-27T12:20:34.173Z,100704.71
2018-03-27T12:23:03.290Z,100700.44
2018-03-27T12:25:32.413Z,100694.21
2018-03-27T12:28:02.184Z,100696.17
2018-03-27T12:30:31.310Z,100691.58
2018-03-27T12:33:00.225Z,100691.51
2018-03-27T12:35:29.359Z,100692.00
2018-03-27T12:37:58.474Z,100692.00
2018-03-27T12:40:27.613Z,100688.52
2018-03-27T12:42:56.717Z,100681.19
2018-03-27T12:45:25.882Z,100679.23
2018-03-27T12:47:55.021Z,100676.52
2018-03-27T12:50:24.198Z,100671.47
2018-03-27T12:52:53.301Z,100671.44
2018-03-27T12:55:22.448Z,100663.25
2018-03-27T12:57:51.453Z,100656.98
2018-03-27T13:00:20.592Z,100652.85
2018-03-27T13:02:50.100Z,100652.92
2018-03-27T13:05:19.104Z,100650.97
2018-03-27T13:07:48.210Z,100643.81
2018-03-27T13:10:17.674Z,100641.42
2018-03-27T13:12:46.790Z,100639.97
2018-03-27T13:15:15.903Z,100639.67
2018-03-27T13:17:45.079Z,100630.45
2018-03-27T13:20:14.220Z,100626.58
2018-03-27T13:22:43.345Z,100615.22
2018-03-27T13:25:12.312Z,100615.75
2018-03-27T13:27:41.412Z,100610.73
2018-03-27T13:30:10.365Z,100602.47
2018-03-27T13:32:39.513Z,100596.70
2018-03-27T13:35:09.262Z,100596.70
2018-03-27T13:37:38.365Z,100585.92
2018-03-27T13:40:07.281Z,100582.94
2018-03-27T13:42:36.253Z,100577.62
2018-03-27T13:45:05.261Z,100582.26
2018-03-27T13:47:34.390Z,100583.16
2018-03-27T13:50:03.515Z,100579.28
2018-03-27T13:52:32.637Z,100570.59
2018-03-27T13:55:01.779Z,100567.46
2018-03-27T13:57:30.913Z,100562.64
2018-03-27T14:00:00.038Z,100556.97
2018-03-27T14:02:29.598Z,100556.55
2018-03-27T14:04:58.621Z,100556.84
2018-03-27T14:07:27.729Z,100550.27
2018-03-27T14:09:56.849Z,100542.30
2018-03-27T14:12:25.966Z,100535.75
2018-03-27T14:14:55.076Z,100529.88
2018-03-27T14:17:24.222Z,100519.75
2018-03-27T14:19:53.322Z,100519.98
2018-03-27T14:22:22.429Z,100507.39
2018-03-27T14:24:51.552Z,100500.31
2018-03-27T14:27:20.669Z,100502.66
2018-03-27T14:29:49.783Z,100500.81
2018-03-27T14:32:19.280Z,100496.22
2018-03-27T14:34:48.439Z,100511.77
2018-03-27T14:37:17.364Z,100506.11
2018-03-27T14:39:46.799Z,100509.24
2018-03-27T14:42:15.770Z,100506.53
2018-03-27T14:44:44.903Z,100497.14
2018-03-27T14:47:14.227Z,100496.53
2018-03-27T14:49:43.338Z,100485.71
2018-03-27T14:52:12.480Z,100485.75
2018-03-27T14:54:41.413Z,100484.58
2018-03-27T14:57:10.535Z,100473.77
2018-03-27T14:59:39.671Z,100476.36
2018-03-27T15:02:08.820Z,100473.96
2018-03-27T15:04:37.945Z,100473.54
2018-03-27T15:07:07.071Z,100463.61
2018-03-27T15:09:36.194Z,100456.81
2018-03-27T15:12:05.300Z,100451.75
2018-03-27T15:14:34.410Z,100453.49
2018-03-27T15:17:03.342Z,100443.41
2018-03-27T15:19:32.474Z,100438.88
2018-03-27T15:22:01.583Z,100444.14
2018-03-27T15:24:31.062Z,100441.59
2018-03-27T15:27:00.173Z,100440.23
2018-03-27T15:29:29.117Z,100432.39
2018-03-27T15:31:58.249Z,100433.74
2018-03-27T15:34:27.358Z,100432.89
2018-03-27T15:36:56.457Z,100429.95
2018-03-27T15:39:25.665Z,100411.20
2018-03-27T15:41:54.789Z,100403.63
2018-03-27T15:44:23.918Z,100396.58
2018-03-27T15:46:53.054Z,100391.79
2018-03-27T15:49:22.156Z,100389.63
2018-03-27T15:51:51.274Z,100390.89
2018-03-27T15:54:20.393Z,100382.22
2018-03-27T15:56:49.518Z,100386.97
2018-03-27T15:59:18.629Z,100373.20
2018-03-27T16:01:48.129Z,100372.11
2018-03-27T16:04:17.257Z,100379.53
2018-03-27T16:06:46.370Z,100373.34
2018-03-27T16:09:15.493Z,100362.14
2018-03-27T16:11:44.599Z,100366.41
2018-03-27T16:14:13.703Z,100358.77
2018-03-27T16:16:42.819Z,100356.02
2018-03-27T16:19:11.938Z,100352.11
2018-03-27T16:21:41.081Z,100350.87
2018-03-27T16:24:10.199Z,100351.05
2018-03-27T16:26:39.344Z,100348.92
2018-03-27T16:29:08.465Z,100349.46
2018-03-27T16:31:37.623Z,100349.11
2018-03-27T16:34:06.502Z,100348.37
2018-03-27T16:36:35.711Z,100341.72
2018-03-27T16:39:04.536Z,100336.31
2018-03-27T16:41:33.657Z,100334.26
2018-03-27T16:44:02.688Z,100341.02
2018-03-27T16:46:32.847Z,100347.95
2018-03-27T16:49:01.970Z,100348.42
2018-03-27T16:51:31.069Z,100348.42
2018-03-27T16:54:00.344Z,100348.67
2018-03-27T16:56:29.715Z,100332.16
2018-03-27T16:58:58.669Z,100334.42
2018-03-27T17:01:27.685Z,100326.32
2018-03-27T17:03:56.649Z,100328.28
2018-03-27T17:06:26.333Z,100324.70
2018-03-27T17:08:56.293Z,100319.36
2018-03-27T17:11:25.405Z,100328.89
2018-03-27T17:13:54.540Z,100320.47
2018-03-27T17:16:23.669Z,100322.01
2018-03-27T17:18:52.530Z,100317.95
2018-03-27T17:21:21.834Z,100320.97
2018-03-27T17:23:51.014Z,100331.96
2018-03-27T17:26:20.125Z,100326.63
2018-03-27T17:28:49.238Z,100320.34
2018-03-27T17:31:18.629Z,100322.37
2018-03-27T17:33:47.740Z,100322.77
2018-03-27T17:36:16.844Z,100321.03
2018-03-27T17:38:45.993Z,100318.94
2018-03-27T17:41:15.092Z,100317.23
2018-03-27T17:43:44.190Z,100317.34
2018-03-27T17:46:14.045Z,100316.63
2018-03-27T17:48:43.145Z,100319.26
2018-03-27T17:51:12.251Z,100311.94
2018-03-27T17:53:41.431Z,100310.30
2018-03-27T17:56:10.338Z,100312.27
2018-03-27T17:58:39.465Z,100312.19
2018-03-27T18:01:08.382Z,100317.28
2018-03-27T18:03:37.392Z,100323.85
2018-03-27T18:06:06.392Z,100327.98
2018-03-27T18:08:35.393Z,100325.88
2018-03-27T18:11:04.363Z,100322.69
2018-03-27T18:13:33.452Z,100316.57
2018-03-27T18:16:02.586Z,100321.55
2018-03-27T18:18:31.692Z,100315.65
2018-03-27T18:21:00.802Z,100317.68
2018-03-27T18:23:29.929Z,100315.77
2018-03-27T18:25:59.037Z,100320.84
2018-03-27T18:28:28.146Z,100314.59
2018-03-27T18:30:57.290Z,100317.72
2018-03-27T18:33:26.553Z,100320.42
2018-03-27T18:35:56.285Z,100322.77
2018-03-27T18:38:25.408Z,100321.03
2018-03-27T18:40:54.514Z,100315.09
2018-03-27T18:43:23.627Z,100316.94
2018-03-27T18:45:52.562Z,100317.97
2018-03-27T18:48:21.669Z,100320.56
2018-03-27T18:50:50.773Z,100320.67
2018-03-27T18:53:19.939Z,100320.17
2018-03-27T18:55:49.049Z,100319.25
2018-03-27T18:58:18.938Z,100321.67
2018-03-27T19:00:48.502Z,100320.17
2018-03-27T19:03:17.613Z,100316.27
2018-03-27T19:05:46.720Z,100323.02
2018-03-27T19:08:16.189Z,100317.73
2018-03-27T19:10:45.314Z,100318.08
2018-03-27T19:13:14.316Z,100311.83
2018-03-27T19:15:43.440Z,100310.48
2018-03-27T19:18:12.542Z,100312.25
2018-03-27T19:20:41.677Z,100321.78
2018-03-27T19:23:10.767Z,100315.53
2018-03-27T19:25:40.053Z,100314.67
2018-03-27T19:28:09.150Z,100308.88
2018-03-27T19:30:38.277Z,100318.66
2018-03-27T19:33:07.458Z,100308.77
2018-03-27T19:35:36.554Z,100314.10
2018-03-27T19:38:05.681Z,100310.91
2018-03-27T19:40:34.778Z,100303.80
2018-03-27T19:43:03.875Z,100307.42
2018-03-27T19:45:33.026Z,100297.90
2018-03-27T19:48:02.062Z,100303.45
2018-03-27T19:50:31.165Z,100304.30
2018-03-27T19:53:00.526Z,100305.22
2018-03-27T19:55:29.663Z,100309.55
2018-03-27T19:57:58.820Z,100307.35
2018-03-27T20:00:27.946Z,100306.00
2018-03-27T20:02:57.049Z,100309.20
2018-03-27T20:05:26.184Z,100309.20
2018-03-27T20:07:55.593Z,100317.91
2018-03-27T20:10:24.707Z,100311.39
2018-03-27T20:12:53.817Z,100307.59
2018-03-27T20:15:22.940Z,100306.05
2018-03-27T20:17:51.897Z,100300.61
2018-03-27T20:20:21.024Z,100302.06
2018-03-27T20:22:50.201Z,100302.87
2018-03-27T20:25:19.326Z,100306.31
2018-03-27T20:27:48.425Z,100305.20
2018-03-27T20:30:17.566Z,100311.39
2018-03-27T20:32:46.678Z,100306.72
2018-03-27T20:35:17.078Z,100300.39
2018-03-27T20:37:47.226Z,100307.89
2018-03-27T20:40:17.413Z,100300.56
2018-03-27T20:42:47.764Z,100295.97
2018-03-27T20:45:16.876Z,100302.14
2018-03-27T20:47:46.375Z,100299.45
2018-03-27T20:50:15.793Z,100290.84
2018-03-27T20:52:44.842Z,100297.52
2018-03-27T20:55:13.861Z,100303.66
2018-03-27T20:57:42.873Z,100299.11
2018-03-27T21:00:11.989Z,100301.70
2018-03-27T21:02:41.065Z,100305.64
2018-03-27T21:05:10.577Z,100300.23
2018-03-27T21:07:39.884Z,100301.37
2018-03-27T21:10:08.928Z,100297.89
2018-03-27T21:12:38.432Z,100293.72
2018-03-27T21:15:07.540Z,100289.02
2018-03-27T21:17:36.438Z,100285.39
2018-03-27T21:20:05.565Z,100286.28
2018-03-27T21:22:34.673Z,100299.36
2018-03-27T21:25:03.609Z,100302.84
2018-03-27T21:27:32.805Z,100301.92
2018-03-27T21:30:01.909Z,100306.90
2018-03-27T21:32:30.937Z,100314.89
2018-03-27T21:35:00.131Z,100316.59
2018-03-27T21:37:29.205Z,100317.95
2018-03-27T21:39:58.304Z,100309.41
2018-03-27T21:42:27.431Z,100310.27
2018-03-27T21:44:56.540Z,100316.06
2018-03-27T21:47:25.651Z,100315.06
2018-03-27T21:49:54.781Z,100310.58
2018-03-27T21:52:23.898Z,100311.51
2018-03-27T21:54:52.811Z,100312.01
2018-03-27T21:57:22.653Z,100312.28
2018-03-27T21:59:51.768Z,100316.34
2018-03-27T22:02:20.878Z,100309.16
2018-03-27T22:04:49.878Z,100311.81
2018-03-27T22:07:18.843Z,100309.12
2018-03-27T22:09:47.943Z,100315.37
2018-03-27T22:12:17.066Z,100317.50
2018-03-27T22:14:46.037Z,100318.81
2018-03-27T22:17:15.134Z,100316.22
2018-03-27T22:19:44.256Z,100320.70
2018-03-27T22:22:13.373Z,100321.13
2018-03-27T22:24:42.478Z,100323.34
2018-03-27T22:27:11.659Z,100329.63
2018-03-27T22:32:08.761Z,100327.81
2018-03-27T22:34:37.886Z,100330.09
2018-03-27T22:37:07.199Z,100328.27
2018-03-27T22:39:36.332Z,100324.64
2018-03-27T22:42:05.273Z,100323.72
2018-03-27T22:44:34.261Z,100319.70
2018-03-27T22:47:03.361Z,100321.95
2018-03-27T22:49:32.527Z,100319.17
2018-03-27T22:52:01.625Z,100327.70
2018-03-27T22:54:30.729Z,100327.20
2018-03-27T22:57:00.389Z,100333.61
2018-03-27T22:59:29.525Z,100332.19
2018-03-27T23:01:58.636Z,100330.41
2018-03-27T23:04:27.561Z,100332.19
2018-03-27T23:06:56.669Z,100337.59
2018-03-27T23:09:25.656Z,100332.69
2018-03-27T23:11:54.956Z,100327.28
2018-03-27T23:14:24.129Z,100325.00
2018-03-27T23:16:53.195Z,100325.50
2018-03-27T23:19:23.190Z,100336.23
2018-03-27T23:21:52.881Z,100334.03
2018-03-27T23:24:21.981Z,100333.61
2018-03-27T23:26:50.948Z,100332.76
2018-03-27T23:29:20.100Z,100340.80
2018-03-27T23:31:49.200Z,100340.80
2018-03-27T23:34:18.689Z,100340.36
2018-03-27T23:36:47.808Z,100335.89
2018-03-27T23:39:16.918Z,100340.44
2018-03-27T23:41:46.172Z,100333.11
2018-03-27T23:44:15.271Z,100323.22
2018-03-27T23:46:44.185Z,100330.41
2018-03-27T23:49:13.374Z,100331.33
2018-03-27T23:51:42.485Z,100327.28
2018-03-27T23:54:11.581Z,100329.55
2018-03-27T23:56:40.715Z,100334.03
2018-03-27T23:59:09.816Z,100329.13
